Airport View

Enter AWOS ICAO identifier for current METAR.

ex. KFNL

KSGF 251052Z 03005KT 10SM OVC028 06/04 A3005 RMK AO2 SLP179 T00560039

25 Oct 2020 11:13

Phone: 417-863-6158

Other Area AWOS: KFWB - KHFJ - KLBO - KBBG

TAF AMD KSGF 250828Z 2508/2606 10006KT 6SM BR SCT007 OVC012 FM251400 08007KT P6SM OVC015 FM251800 08006KT P6SM OVC020 FM260200 04008KT P6SM OVC018 PROB30 2602/2606 4SM -RA BR